• Join FlightAware (Why Join?)
  • Login
  • US Flag 
09:43AM EDT


 

Airport Tracker/Info


-or-


 

Live Flight TrackerFlight Track Log ✈ EJA396 ✈ 22-Apr-2013 ✈ KAUS - KSDL

Flight Track Log - Related Links

Times and Time Zones

All times are in EDT time to prevent confusion due to time zone crossing. See the EJA396 flight status page for this flight to view local times or setup timezone preferences in your user account.

Time Position Orientation Groundspeed Altitude Reporting Facility
EDT Latitude Longitude Course Direction KTS MPH feet Rate Location/Type
11:11AM 30.0664 -97.6964 275° West 260 299 6,600  Level Houston Center
11:12AM 30.1206 -97.7444 323° Northwest 265 305 11,300 2,700 Climbing Houston Center
11:13AM 30.1897 -97.8106 320° Northwest 319 367 12,200 2,160 Climbing Houston Center
11:14AM 30.2467 -97.9147 302° West 342 394 15,900 3,960 Climbing Houston Center
11:15AM 30.4148 -97.9063 282° West  Level FlightAware Approximate
11:15AM 30.2997 -98.0100 303° West 330 380 20,500  Level Houston Center
11:16AM 30.4178 -98.0143 275° West  Level FlightAware Approximate
11:16AM 30.3453 -98.0917 303° West 311 358 23,700  Level Houston Center
11:17AM 30.3947 -98.1786 303° West 320 368 26,300 2,460 Climbing Houston Center
11:18AM 30.4425 -98.2711 301° West 334 384 28,800 2,580 Climbing Houston Center
11:19AM 30.4664 -98.3731 285° West 332 382 31,700 2,880 Climbing Houston Center
11:20AM 30.4761 -98.4747 276° West 320 368 34,800 2,820 Climbing Houston Center
11:21AM 30.4844 -98.5853 275° West 281 323 37,600 1,500 Climbing Houston Center
11:22AM 30.4933 -98.6781 276° West 289 333 38,000 180 Climbing Houston Center
11:23AM 30.5042 -98.7897 276° West 321 369 38,000  Level Houston Center
11:24AM 30.5108 -98.8878 275° West 340 391 38,000  Level Houston Center
11:25AM 30.5228 -99.0039 277° West 359 413 38,000  Level Houston Center
11:26AM 30.5367 -99.1450 277° West 367 422 38,000 240 Level Houston Center
11:27AM 30.5481 -99.2608 277° West 364 419 38,600 900 Climbing Houston Center
11:28AM 30.5575 -99.3678 276° West 345 397 39,900 660 Climbing Houston Center
11:29AM 30.5664 -99.4717 276° West 331 381 40,000  Climbing Houston Center
11:30AM 30.5761 -99.5800 276° West 336 387 40,000  Level Houston Center
11:31AM 30.5858 -99.6908 276° West 344 396 40,000  Level Houston Center
11:32AM 30.5983 -99.8256 276° West 351 404 40,000  Level Houston Center
11:34AM 30.6131 -99.9381 279° West 354 407 40,000  Level Houston Center
11:35AM 30.6278 -100.0486 279° West 351 404 40,000  Level Houston Center
11:36AM 30.6411 -100.1575 278° West 346 398 40,000  Level Houston Center
11:37AM 30.6531 -100.2656 277° West 342 394 40,000  Level Houston Center
11:38AM 30.6692 -100.3944 278° West 339 390 40,000  Level Houston Center
11:39AM 30.6828 -100.4994 279° West 333 383 40,000  Level Houston Center
11:40AM 30.6947 -100.6058 277° West 334 384 40,000  Level Houston Center
11:41AM 30.7078 -100.7114 278° West 333 383 40,000  Level Houston Center
11:42AM 30.7200 -100.8178 278° West 334 384 40,000  Level Houston Center
11:43AM 30.7350 -100.9447 278° West 333 383 40,000  Level Houston Center
11:44AM 30.7467 -101.0519 277° West 335 386 40,000  Level Houston Center
11:45AM 30.7586 -101.1583 277° West 334 384 40,000  Level Houston Center
11:46AM 30.7703 -101.2653 277° West 336 387 40,000  Level Houston Center
11:47AM 30.7811 -101.3717 277° West 333 383 40,000  Level Houston Center
11:48AM 30.7956 -101.5006 277° West 336 387 40,000  Level Houston Center
11:49AM 30.8072 -101.6089 277° West 338 389 40,000  Level Houston Center
11:50AM 30.8175 -101.7053 277° West 333 383 40,000  Level Houston Center
11:51AM 30.8328 -101.8325 278° West 336 387 40,000  Level Albuquerque Center
11:52AM 30.8444 -101.9394 277° West 334 384 40,000  Level Albuquerque Center
11:53AM 30.8561 -102.0481 277° West 337 388 40,000  Level Albuquerque Center
11:54AM 30.8672 -102.1561 277° West 336 387 40,000  Level Albuquerque Center
11:55AM 30.8786 -102.2650 277° West 337 388 40,000  Level Albuquerque Center
11:56AM 30.8897 -102.3733 277° West 336 387 40,000  Level Albuquerque Center
11:57AM 30.9011 -102.4819 277° West 337 388 40,000  Level Albuquerque Center
11:58AM 30.9122 -102.5903 277° West 336 387 40,000  Level Albuquerque Center
11:59AM 30.9256 -102.7219 277° West 338 389 40,000  Level Albuquerque Center
12:00PM 30.9367 -102.8314 277° West 340 391 40,000  Level Albuquerque Center
12:01PM 30.9475 -102.9397 277° West 338 389 40,000  Level Albuquerque Center
12:02PM 30.9708 -103.0456 284° West 340 391 40,000  Level Albuquerque Center
12:03PM 31.0000 -103.1508 288° West 342 394 40,000  Level Albuquerque Center
12:05PM 31.0289 -103.2558 288° West 341 392 40,000  Level Albuquerque Center
12:06PM 31.0572 -103.3614 287° West 342 394 40,000  Level Albuquerque Center
12:07PM 31.0928 -103.4875 288° West 342 394 40,000  Level Albuquerque Center
12:08PM 31.1206 -103.5942 287° West 345 397 40,000  Level Albuquerque Center
12:09PM 31.1494 -103.7008 288° West 346 398 40,000  Level Albuquerque Center
12:10PM 31.1775 -103.8042 288° West 345 397 40,000  Level Albuquerque Center
12:11PM 31.2067 -103.9122 288° West 349 402 40,000  Level Albuquerque Center
12:12PM 31.2356 -104.0192 288° West 349 402 40,000  Level Albuquerque Center
12:13PM 31.2703 -104.1481 288° West 348 400 40,000  Level Albuquerque Center
12:14PM 31.2983 -104.2558 287° West 349 402 40,000  Level Albuquerque Center
12:15PM 31.3275 -104.3625 288° West 348 400 40,000  Level Albuquerque Center
12:16PM 31.3542 -104.4697 286° West 347 399 40,000  Level Albuquerque Center
12:17PM 31.3831 -104.5767 288° West 346 398 40,000  Level Albuquerque Center
12:18PM 31.4156 -104.7039 287° West 344 396 40,000  Level Albuquerque Center
12:19PM 31.4444 -104.8111 288° West 346 398 40,000  Level Albuquerque Center
12:20PM 31.4728 -104.9181 287° West 347 399 40,000  Level Albuquerque Center
12:21PM 31.4997 -105.0253 286° West 346 398 40,000  Level Albuquerque Center
12:22PM 31.5275 -105.1322 287° West 346 398 40,000  Level Albuquerque Center
12:23PM 31.5556 -105.2394 287° West 346 398 40,000  Level Albuquerque Center
12:24PM 31.5878 -105.3711 286° West 352 405 40,000  Level Albuquerque Center
12:25PM 31.6156 -105.4775 287° West 345 397 40,000  Level Albuquerque Center
12:26PM 31.6422 -105.5858 286° West 346 398 40,000  Level Albuquerque Center
12:27PM 31.6700 -105.6947 287° West 348 400 40,000  Level Albuquerque Center
12:28PM 31.6975 -105.8042 286° West 349 402 40,000  Level Albuquerque Center
12:29PM 31.7306 -105.9356 287° West 351 404 40,000  Level Albuquerque Center
12:30PM 31.7575 -106.0458 286° West 352 405 40,000  Level Albuquerque Center
12:31PM 31.7853 -106.1547 287° West 350 403 40,000  Level Albuquerque Center
12:32PM 31.8136 -106.2647 287° West 351 404 40,000  Level Albuquerque Center
12:33PM 31.8233 -106.3808 276° West 356 410 40,000  Level Albuquerque Center
12:34PM 31.8294 -106.4958 274° West 357 411 40,000  Level Albuquerque Center
12:36PM 31.8428 -106.6328 277° West 354 407 40,000  Level Albuquerque Center
12:37PM 31.8519 -106.7467 275° West 350 403 40,000  Level Albuquerque Center
12:38PM 31.8603 -106.8619 275° West 353 406 40,000  Level Albuquerque Center
12:39PM 31.8683 -106.9767 275° West 352 405 40,000  Level Albuquerque Center
12:40PM 31.8761 -107.0928 275° West 354 407 40,000  Level Albuquerque Center
12:41PM 31.8842 -107.2078 275° West 352 405 40,000  Level Albuquerque Center
12:42PM 31.8917 -107.3233 274° West 353 406 40,000  Level Albuquerque Center
12:43PM 31.9008 -107.4614 275° West 352 405 40,000  Level Albuquerque Center
12:44PM 31.9081 -107.5728 274° West 351 404 40,000  Level Albuquerque Center
12:45PM 31.9153 -107.6900 274° West 349 402 40,000  Level Albuquerque Center
12:46PM 31.9275 -107.8031 277° West 349 402 40,000  Level Albuquerque Center
12:47PM 31.9547 -107.9131 286° West 349 402 40,000  Level Albuquerque Center
12:48PM 31.9806 -108.0250 285° West 353 406 40,000  Level Albuquerque Center
12:49PM 32.0100 -108.1506 285° West 354 407 40,000  Level Albuquerque Center
12:50PM 32.0369 -108.2606 286° West 354 407 40,000  Level Albuquerque Center
12:51PM 32.0631 -108.3719 285° West 354 407 40,000  Level Albuquerque Center
12:52PM 32.0947 -108.5050 286° West 355 409 40,000 -180 Level Albuquerque Center
12:53PM 32.1197 -108.6153 285° West 352 405 39,700 -900 Descending Albuquerque Center
12:54PM 32.1472 -108.7308 286° West 362 417 38,200 -1,500 Descending Albuquerque Center
12:55PM 32.1744 -108.8486 285° West 371 427 36,700 -1,500 Descending Albuquerque Center
12:56PM 32.2019 -108.9692 285° West 378 435 35,200 -1,320 Descending Albuquerque Center
12:57PM 32.2289 -109.0906 285° West 383 441 34,000 -600 Descending Albuquerque Center
12:58PM 32.2619 -109.2350 285° West 382 440 34,000  Level Albuquerque Center
12:59PM 32.2911 -109.3558 286° West 383 441 34,000  Level Albuquerque Center
01:00PM 32.3208 -109.4786 286° West 388 447 34,000  Level Albuquerque Center
01:01PM 32.3511 -109.6014 286° West 390 449 34,000  Level Albuquerque Center
01:02PM 32.3800 -109.7239 286° West 389 448 34,000  Level Albuquerque Center
01:03PM 32.4167 -109.8719 286° West 393 452 34,000 -60 Level Albuquerque Center
01:04PM 32.4472 -109.9961 286° West 395 455 33,900 -1,020 Descending Albuquerque Center
01:05PM 32.4769 -110.1178 286° West 389 448 32,000 -1,920 Descending Albuquerque Center
01:07PM 32.5050 -110.2375 286° West 382 440 30,000 -2,040 Descending Albuquerque Center
01:08PM 32.5364 -110.3683 286° West 381 438 27,800 -2,040 Descending Albuquerque Center
01:09PM 32.5639 -110.4869 285° West 377 434 25,800 -1,980 Descending Albuquerque Center
01:10PM 32.5939 -110.6033 287° West 371 427 23,800 -1,920 Descending Albuquerque Center
01:11PM 32.6481 -110.7056 302° West 367 422 21,900 -2,040 Descending Albuquerque Center
01:12PM 32.7097 -110.8278 301° West 362 417 19,700 -2,040 Descending Albuquerque Center
01:13PM 32.7606 -110.9231 302° West 348 400 17,800 -1,800 Descending Albuquerque Center
01:14PM 32.8086 -111.0194 301° West 342 394 16,100 -1,800 Descending Albuquerque Center
01:15PM 32.8550 -111.1147 300° West 336 387 14,200 -1,800 Descending Albuquerque Center
01:16PM 32.9033 -111.2067 302° West 330 380 12,500 -1,680 Descending Albuquerque Center
01:17PM 32.9494 -111.2944 302° West 317 365 10,800 -1,680 Descending Albuquerque Center
01:18PM 32.9981 -111.3928 301° West 285 328 9,100 -1,440 Descending Albuquerque Center
01:20PM 33.0833 -111.5167 309° West 271 312 6,800 -1,260 Descending Phoenix TRACON
01:20PM 33.0869 -111.5389 281° West 270 311 6,500 -600 Descending Albuquerque Center
01:21PM 33.1125 -111.6097 293° West 237 273 6,000 -300 Descending Albuquerque Center
01:22PM 33.1375 -111.6767 294° West 223 257 6,000 -540 Level Albuquerque Center
01:23PM 33.1631 -111.7442 294° West 223 257 5,000 -540 Descending Albuquerque Center
01:24PM 33.1964 -111.8050 303° West 220 253 5,000  Level Albuquerque Center
01:25PM 33.2364 -111.8778 303° West 220 253 5,000  Level Albuquerque Center
01:26PM 33.2681 -111.9383 302° West 216 249 5,000  Level Albuquerque Center
01:27PM 33.3100 -111.9861 316° Northwest 214 246 5,000  Level Albuquerque Center
01:28PM 33.3661 -112.0181 335° Northwest 220 253 5,000  Level Albuquerque Center
01:29PM 33.4269 -112.0125 North 222 255 5,000 -240 Level Albuquerque Center
01:30PM 33.4861 -112.0089 North 217 250 4,500 -600 Descending Albuquerque Center
01:31PM 33.5467 -111.9794 22° Northeast 213 245 3,800 -780 Descending Albuquerque Center
01:32PM 33.5711 -111.9217 63° Northeast 198 228 3,000 -480 Descending Albuquerque Center
01:33PM 33.6083 -111.8803 43° Northeast 184 212 2,900 -300 Descending Albuquerque Center
01:34PM 33.6406 -111.8717 13° North 149 171 2,500 -720 Descending Albuquerque Center
01:35PM 33.6292 -111.9042 247° West 130 150 1,500 -1,020 Descending Albuquerque Center